createdAt,value
2019-02-16T00:00:27.230Z,1024.27
2019-02-16T00:01:27.221Z,1024.27
2019-02-16T00:02:27.228Z,1024.25
2019-02-16T00:03:27.202Z,1024.25
2019-02-16T00:04:27.204Z,1024.23
2019-02-16T00:05:27.174Z,1024.25
2019-02-16T00:06:27.156Z,1024.23
2019-02-16T00:07:27.153Z,1024.23
2019-02-16T00:08:27.143Z,1024.22
2019-02-16T00:09:27.161Z,1024.22
2019-02-16T00:10:27.120Z,1024.19
2019-02-16T00:11:27.117Z,1024.18
2019-02-16T00:12:27.095Z,1024.16
2019-02-16T00:13:27.086Z,1024.13
2019-02-16T00:14:27.104Z,1024.13
2019-02-16T00:15:27.068Z,1024.14
2019-02-16T00:16:27.063Z,1024.13
2019-02-16T00:17:27.040Z,1024.17
2019-02-16T00:18:27.032Z,1024.13
2019-02-16T00:19:27.051Z,1024.12
2019-02-16T00:20:27.015Z,1024.12
2019-02-16T00:21:27.010Z,1024.12
2019-02-16T00:22:26.996Z,1024.13
2019-02-16T00:23:26.985Z,1024.14
2019-02-16T00:24:27.012Z,1024.13
2019-02-16T00:25:26.955Z,1024.11
2019-02-16T00:26:26.946Z,1024.11
2019-02-16T00:27:26.937Z,1024.08
2019-02-16T00:28:26.931Z,1024.08
2019-02-16T00:29:26.946Z,1024.09
2019-02-16T00:30:26.933Z,1024.09
2019-02-16T00:31:26.896Z,1024.06
2019-02-16T00:32:26.889Z,1024.03
2019-02-16T00:33:26.883Z,1024.04
2019-02-16T00:34:26.884Z,1023.99
2019-02-16T00:35:26.889Z,1024.02
2019-02-16T00:36:26.838Z,1023.98
2019-02-16T00:37:26.831Z,1024.05
2019-02-16T00:38:26.820Z,1024.04
2019-02-16T00:39:26.807Z,1024.05
2019-02-16T00:40:26.846Z,1024.03
2019-02-16T00:41:26.792Z,1024.04
2019-02-16T00:42:26.781Z,1024.01
2019-02-16T00:43:26.770Z,1023.96
2019-02-16T00:44:26.756Z,1024.03
2019-02-16T00:45:26.778Z,1023.96
2019-02-16T00:46:26.738Z,1024.03
2019-02-16T00:47:26.734Z,1023.99
2019-02-16T00:48:26.711Z,1023.96
2019-02-16T00:49:26.731Z,1023.99
2019-02-16T00:50:26.714Z,1023.95
2019-02-16T00:51:26.681Z,1023.91
2019-02-16T00:52:26.673Z,1023.94
2019-02-16T00:53:26.664Z,1023.93
2019-02-16T00:54:26.653Z,1023.95
2019-02-16T00:55:26.664Z,1023.94
2019-02-16T00:56:26.632Z,1023.93
2019-02-16T00:57:26.618Z,1023.92
2019-02-16T00:58:26.604Z,1023.88
2019-02-16T00:59:28.035Z,1023.91
2019-02-16T01:00:26.616Z,1023.90
2019-02-16T01:01:26.577Z,1023.90
2019-02-16T01:02:26.569Z,1023.89
2019-02-16T01:03:26.551Z,1023.87
2019-02-16T01:04:26.544Z,1023.88
2019-02-16T01:05:26.560Z,1023.83
2019-02-16T01:06:26.523Z,1023.82
2019-02-16T01:07:26.549Z,1023.83
2019-02-16T01:08:26.498Z,1023.82
2019-02-16T01:09:26.491Z,1023.78
2019-02-16T01:10:26.969Z,1023.79
2019-02-16T01:11:28.128Z,1023.76
2019-02-16T01:12:26.900Z,1023.73
2019-02-16T01:13:27.645Z,1023.76
2019-02-16T01:14:26.742Z,1023.75
2019-02-16T01:15:26.513Z,1023.73
2019-02-16T01:16:27.247Z,1023.69
2019-02-16T01:17:27.507Z,1023.65
2019-02-16T01:18:26.403Z,1023.65
2019-02-16T01:19:27.256Z,1023.64
2019-02-16T01:20:26.621Z,1023.63
2019-02-16T01:21:26.652Z,1023.54
2019-02-16T01:22:26.526Z,1023.58
2019-02-16T01:23:26.556Z,1023.55
2019-02-16T01:24:26.479Z,1023.53
2019-02-16T01:25:26.390Z,1023.56
2019-02-16T01:26:26.558Z,1023.56
2019-02-16T01:27:26.739Z,1023.52
2019-02-16T01:28:26.497Z,1023.53
2019-02-16T01:29:26.409Z,1023.51
2019-02-16T01:30:26.379Z,1023.51
2019-02-16T01:31:26.307Z,1023.50
2019-02-16T01:32:26.611Z,1023.47
2019-02-16T01:33:26.649Z,1023.48
2019-02-16T01:34:26.319Z,1023.44
2019-02-16T01:35:26.234Z,1023.45
2019-02-16T01:36:26.240Z,1023.42
2019-02-16T01:37:26.245Z,1023.43
2019-02-16T01:38:26.368Z,1023.46
2019-02-16T01:39:26.224Z,1023.46
2019-02-16T01:40:26.197Z,1023.40
2019-02-16T01:41:26.158Z,1023.41
2019-02-16T01:42:26.225Z,1023.38
2019-02-16T01:43:26.230Z,1023.39
2019-02-16T01:44:26.322Z,1023.35
2019-02-16T01:45:26.263Z,1023.36
2019-02-16T01:46:26.139Z,1023.29
2019-02-16T01:47:26.096Z,1023.25
2019-02-16T01:48:26.108Z,1023.28
2019-02-16T01:49:26.455Z,1023.28
2019-02-16T01:50:26.151Z,1023.27
2019-02-16T01:51:31.864Z,1023.30
2019-02-16T01:52:27.108Z,1023.23
2019-02-16T01:53:26.090Z,1023.26
2019-02-16T01:54:26.084Z,1023.25
2019-02-16T01:55:26.896Z,1023.27
2019-02-16T01:56:26.138Z,1023.24
2019-02-16T01:57:26.041Z,1023.25
2019-02-16T01:58:26.047Z,1023.22
2019-02-16T01:59:26.015Z,1023.17
2019-02-16T02:00:26.067Z,1023.22
2019-02-16T02:01:25.999Z,1023.17
2019-02-16T02:02:25.932Z,1023.20
2019-02-16T02:03:26.095Z,1023.20
2019-02-16T02:04:25.977Z,1023.16
2019-02-16T02:05:25.944Z,1023.16
2019-02-16T02:06:25.924Z,1023.08
2019-02-16T02:07:25.886Z,1023.08
2019-02-16T02:08:25.874Z,1023.08
2019-02-16T02:09:25.868Z,1023.07
2019-02-16T02:10:25.874Z,1023.06
2019-02-16T02:11:25.887Z,1023.08
2019-02-16T02:12:25.857Z,1023.06
2019-02-16T02:13:25.818Z,1023.03
2019-02-16T02:14:25.805Z,1023.04
2019-02-16T02:15:25.786Z,1022.99
2019-02-16T02:16:25.781Z,1022.98
2019-02-16T02:17:25.804Z,1022.95
2019-02-16T02:18:25.759Z,1022.95
2019-02-16T02:19:25.772Z,1022.95
2019-02-16T02:20:25.762Z,1022.97
2019-02-16T02:21:25.720Z,1022.98
2019-02-16T02:22:25.719Z,1022.97
2019-02-16T02:23:25.704Z,1022.98
2019-02-16T02:24:25.719Z,1022.98
2019-02-16T02:25:25.677Z,1022.93
2019-02-16T02:26:25.671Z,1022.93
2019-02-16T02:27:25.657Z,1022.90
2019-02-16T02:28:25.654Z,1022.92
2019-02-16T02:29:25.845Z,1022.93
2019-02-16T02:30:25.816Z,1022.94
2019-02-16T02:31:25.628Z,1022.88
2019-02-16T02:32:25.605Z,1022.89
2019-02-16T02:33:25.589Z,1022.89
2019-02-16T02:34:25.589Z,1022.93
2019-02-16T02:35:25.615Z,1022.89
2019-02-16T02:36:25.567Z,1022.89
2019-02-16T02:37:25.552Z,1022.86
2019-02-16T02:38:25.535Z,1022.85
2019-02-16T02:39:25.533Z,1022.84
2019-02-16T02:40:25.527Z,1022.84
2019-02-16T02:41:25.532Z,1022.83
2019-02-16T02:42:25.497Z,1022.82
2019-02-16T02:43:25.488Z,1022.84
2019-02-16T02:44:25.474Z,1022.87
2019-02-16T02:45:25.481Z,1022.82
2019-02-16T02:46:25.480Z,1022.84
2019-02-16T02:47:25.439Z,1022.79
2019-02-16T02:48:25.434Z,1022.80
2019-02-16T02:49:25.489Z,1022.75
2019-02-16T02:50:25.414Z,1022.79
2019-02-16T02:51:25.430Z,1022.76
2019-02-16T02:52:25.392Z,1022.74
2019-02-16T02:53:31.008Z,1022.75
2019-02-16T02:54:26.395Z,1022.74
2019-02-16T02:55:25.364Z,1022.72
2019-02-16T02:56:25.387Z,1022.73
2019-02-16T02:57:25.330Z,1022.77
2019-02-16T02:58:25.331Z,1022.74
2019-02-16T02:59:25.330Z,1022.75
2019-02-16T03:00:25.302Z,1022.74
2019-02-16T03:01:25.323Z,1022.75
2019-02-16T03:02:25.286Z,1022.74
2019-02-16T03:03:25.277Z,1022.74
2019-02-16T03:04:25.258Z,1022.75
2019-02-16T03:05:25.313Z,1022.70
2019-02-16T03:06:25.282Z,1022.77
2019-02-16T03:07:25.231Z,1022.77
2019-02-16T03:08:25.312Z,1022.68
2019-02-16T03:09:25.212Z,1022.74
2019-02-16T03:10:25.205Z,1022.70
2019-02-16T03:11:25.183Z,1022.68
2019-02-16T03:12:25.198Z,1022.65
2019-02-16T03:13:25.166Z,1022.66
2019-02-16T03:14:25.156Z,1022.66
2019-02-16T03:15:25.145Z,1022.63
2019-02-16T03:16:26.220Z,1022.63
2019-02-16T03:17:25.158Z,1022.62
2019-02-16T03:18:25.118Z,1022.66
2019-02-16T03:19:25.097Z,1022.61
2019-02-16T03:20:25.094Z,1022.63
2019-02-16T03:21:25.085Z,1022.59
2019-02-16T03:22:25.073Z,1022.61
2019-02-16T03:23:25.096Z,1022.63
2019-02-16T03:24:25.063Z,1022.62
2019-02-16T03:25:25.040Z,1022.61
2019-02-16T03:26:25.031Z,1022.62
2019-02-16T03:27:25.026Z,1022.62
2019-02-16T03:28:25.035Z,1022.59
2019-02-16T03:29:24.992Z,1022.60
2019-02-16T03:30:24.992Z,1022.59
2019-02-16T03:31:24.986Z,1022.55
2019-02-16T03:32:25.021Z,1022.56
2019-02-16T03:33:24.963Z,1022.57
2019-02-16T03:34:25.003Z,1022.55
2019-02-16T03:35:24.941Z,1022.58
2019-02-16T03:36:24.922Z,1022.59
2019-02-16T03:37:24.910Z,1022.56
2019-02-16T03:38:24.898Z,1022.55
2019-02-16T03:39:24.893Z,1022.57
2019-02-16T03:40:24.911Z,1022.57
2019-02-16T03:41:24.888Z,1022.55
2019-02-16T03:42:24.854Z,1022.59
2019-02-16T03:43:24.846Z,1022.53
2019-02-16T03:44:24.840Z,1022.54
2019-02-16T03:45:24.875Z,1022.49
2019-02-16T03:46:24.821Z,1022.50
2019-02-16T03:47:24.809Z,1022.47
2019-02-16T03:48:24.793Z,1022.47
2019-02-16T03:49:24.784Z,1022.52
2019-02-16T03:50:24.797Z,1022.48
2019-02-16T03:51:24.803Z,1022.45
2019-02-16T03:52:24.761Z,1022.46
2019-02-16T03:53:24.750Z,1022.44
2019-02-16T03:54:24.736Z,1022.41
2019-02-16T03:55:24.725Z,1022.42
2019-02-16T03:56:24.746Z,1022.38
2019-02-16T03:57:24.722Z,1022.39
2019-02-16T03:58:24.707Z,1022.40
2019-02-16T03:59:24.686Z,1022.38
2019-02-16T04:00:24.671Z,1022.39
2019-02-16T04:01:24.656Z,1022.37
2019-02-16T04:02:24.675Z,1022.41
2019-02-16T04:03:24.634Z,1022.38
2019-02-16T04:04:24.635Z,1022.43
2019-02-16T04:05:24.621Z,1022.42
2019-02-16T04:06:24.614Z,1022.40
2019-02-16T04:07:24.632Z,1022.41
2019-02-16T04:08:24.584Z,1022.42
2019-02-16T04:09:24.574Z,1022.41
2019-02-16T04:10:24.568Z,1022.38
2019-02-16T04:11:24.555Z,1022.32
2019-02-16T04:12:24.548Z,1022.38
2019-02-16T04:13:24.567Z,1022.35
2019-02-16T04:14:24.518Z,1022.32
2019-02-16T04:15:24.509Z,1022.33
2019-02-16T04:16:24.507Z,1022.31
2019-02-16T04:17:24.506Z,1022.29
2019-02-16T04:18:24.483Z,1022.24
2019-02-16T04:19:24.464Z,1022.27
2019-02-16T04:20:24.452Z,1022.24
2019-02-16T04:21:24.460Z,1022.23
2019-02-16T04:22:25.069Z,1022.21
2019-02-16T04:23:24.426Z,1022.20
2019-02-16T04:24:24.422Z,1022.17
2019-02-16T04:25:24.402Z,1022.20
2019-02-16T04:26:24.400Z,1022.17
2019-02-16T04:27:24.389Z,1022.15
2019-02-16T04:28:24.388Z,1022.14
2019-02-16T04:29:24.352Z,1022.08
2019-02-16T04:30:24.381Z,1022.11
2019-02-16T04:31:24.339Z,1022.08
2019-02-16T04:32:24.320Z,1022.06
2019-02-16T04:33:24.315Z,1022.13
2019-02-16T04:34:24.302Z,1022.04
2019-02-16T04:35:24.320Z,1022.05
2019-02-16T04:36:24.285Z,1022.06
2019-02-16T04:37:24.273Z,1021.99
2019-02-16T04:38:24.260Z,1022.01
2019-02-16T04:39:24.246Z,1021.98
2019-02-16T04:40:24.285Z,1021.95
2019-02-16T04:41:24.237Z,1021.95
2019-02-16T04:42:24.221Z,1021.95
2019-02-16T04:43:24.212Z,1021.93
2019-02-16T04:44:24.198Z,1021.86
2019-02-16T04:45:24.188Z,1021.88
2019-02-16T04:46:24.219Z,1021.85
2019-02-16T04:47:24.174Z,1021.85
2019-02-16T04:48:24.158Z,1021.85
2019-02-16T04:49:24.146Z,1021.86
2019-02-16T04:50:24.159Z,1021.86
2019-02-16T04:51:24.123Z,1021.83
2019-02-16T04:52:33.979Z,1021.85
2019-02-16T04:53:25.104Z,1021.83
2019-02-16T04:54:24.111Z,1021.83
2019-02-16T04:55:24.115Z,1021.82
2019-02-16T04:56:24.070Z,1021.81
2019-02-16T04:57:24.065Z,1021.81
2019-02-16T04:58:24.048Z,1021.76
2019-02-16T04:59:24.040Z,1021.81
2019-02-16T05:00:24.081Z,1021.79
2019-02-16T05:01:24.022Z,1021.81
2019-02-16T05:02:24.006Z,1021.79
2019-02-16T05:03:24.000Z,1021.76
2019-02-16T05:04:23.996Z,1021.76
2019-02-16T05:05:24.003Z,1021.78
2019-02-16T05:06:24.004Z,1021.73
2019-02-16T05:07:23.961Z,1021.70
2019-02-16T05:08:23.941Z,1021.75
2019-02-16T05:09:23.941Z,1021.69
2019-02-16T05:10:23.923Z,1021.72
2019-02-16T05:11:23.917Z,1021.70
2019-02-16T05:12:23.927Z,1021.67
2019-02-16T05:13:23.922Z,1021.71
2019-02-16T05:14:23.887Z,1021.71
2019-02-16T05:15:23.881Z,1021.66
2019-02-16T05:16:23.860Z,1021.68
2019-02-16T05:17:23.884Z,1021.66
2019-02-16T05:18:23.843Z,1021.64
2019-02-16T05:19:23.834Z,1021.67
2019-02-16T05:20:23.825Z,1021.67
2019-02-16T05:21:23.813Z,1021.65
2019-02-16T05:22:23.835Z,1021.64
2019-02-16T05:23:23.811Z,1021.64
2019-02-16T05:24:23.785Z,1021.65
2019-02-16T05:25:23.771Z,1021.65
2019-02-16T05:26:23.757Z,1021.66
2019-02-16T05:27:23.781Z,1021.63
2019-02-16T05:28:23.771Z,1021.65
2019-02-16T05:29:23.726Z,1021.58
2019-02-16T05:30:23.714Z,1021.58
2019-02-16T05:31:23.711Z,1021.60
2019-02-16T05:32:23.700Z,1021.60
2019-02-16T05:33:23.753Z,1021.58
2019-02-16T05:34:23.674Z,1021.58
2019-02-16T05:35:23.753Z,1021.61
2019-02-16T05:36:23.695Z,1021.59
2019-02-16T05:37:23.831Z,1021.56
2019-02-16T05:38:23.672Z,1021.58
2019-02-16T05:39:23.765Z,1021.59
2019-02-16T05:40:23.663Z,1021.61
2019-02-16T05:41:23.651Z,1021.55
2019-02-16T05:42:23.638Z,1021.58
2019-02-16T05:43:23.812Z,1021.59
2019-02-16T05:44:23.645Z,1021.61
2019-02-16T05:45:23.563Z,1021.60
2019-02-16T05:46:24.712Z,1021.58
2019-02-16T05:47:23.539Z,1021.63
2019-02-16T05:48:23.523Z,1021.64
2019-02-16T05:49:23.515Z,1021.63
2019-02-16T05:50:23.536Z,1021.62
2019-02-16T05:51:23.497Z,1021.62
2019-02-16T05:52:23.483Z,1021.57
2019-02-16T05:53:23.477Z,1021.63
2019-02-16T05:54:23.458Z,1021.61
2019-02-16T05:55:23.494Z,1021.58
2019-02-16T05:56:23.444Z,1021.59
2019-02-16T05:57:23.434Z,1021.59
2019-02-16T05:58:23.427Z,1021.56
2019-02-16T05:59:23.416Z,1021.62
2019-02-16T06:00:23.398Z,1021.65
2019-02-16T06:01:23.419Z,1021.60
2019-02-16T06:02:23.378Z,1021.60
2019-02-16T06:03:23.397Z,1021.58
2019-02-16T06:04:23.367Z,1021.61
2019-02-16T06:05:23.373Z,1021.61
2019-02-16T06:06:23.358Z,1021.62
2019-02-16T06:07:23.322Z,1021.59
2019-02-16T06:08:23.319Z,1021.61
2019-02-16T06:09:23.311Z,1021.51
2019-02-16T06:10:23.293Z,1021.53
2019-02-16T06:11:23.319Z,1021.52
2019-02-16T06:12:23.291Z,1021.50
2019-02-16T06:13:23.264Z,1021.51
2019-02-16T06:14:23.251Z,1021.44
2019-02-16T06:15:23.245Z,1021.43
2019-02-16T06:16:23.231Z,1021.46
2019-02-16T06:17:23.263Z,1021.44
2019-02-16T06:18:23.211Z,1021.46
2019-02-16T06:19:23.209Z,1021.44
2019-02-16T06:20:23.183Z,1021.46
2019-02-16T06:21:23.178Z,1021.51
2019-02-16T06:22:23.169Z,1021.50
2019-02-16T06:23:23.185Z,1021.50
2019-02-16T06:24:23.142Z,1021.47
2019-02-16T06:25:23.138Z,1021.53
2019-02-16T06:26:23.182Z,1021.49
2019-02-16T06:27:23.112Z,1021.53
2019-02-16T06:28:23.153Z,1021.51
2019-02-16T06:29:23.105Z,1021.51
2019-02-16T06:30:23.085Z,1021.49
2019-02-16T06:31:23.081Z,1021.46
2019-02-16T06:32:23.059Z,1021.51
2019-02-16T06:33:23.050Z,1021.47
2019-02-16T06:34:23.070Z,1021.49
2019-02-16T06:35:23.024Z,1021.47
2019-02-16T06:36:23.023Z,1021.50
2019-02-16T06:37:23.018Z,1021.50
2019-02-16T06:38:22.999Z,1021.49
2019-02-16T06:39:23.014Z,1021.57
2019-02-16T06:40:22.984Z,1021.52
2019-02-16T06:41:22.972Z,1021.52
2019-02-16T06:42:22.961Z,1021.51
2019-02-16T06:43:23.002Z,1021.49
2019-02-16T06:44:22.956Z,1021.51
2019-02-16T06:45:22.922Z,1021.54
2019-02-16T06:46:22.913Z,1021.53
2019-02-16T06:47:22.899Z,1021.52
2019-02-16T06:48:22.899Z,1021.59
2019-02-16T06:49:22.917Z,1021.59
2019-02-16T06:50:22.903Z,1021.62
2019-02-16T06:51:22.873Z,1021.60
2019-02-16T06:52:22.854Z,1021.66
2019-02-16T06:53:22.842Z,1021.63
2019-02-16T06:54:22.879Z,1021.64
2019-02-16T06:55:22.827Z,1021.69
2019-02-16T06:56:22.810Z,1021.65
2019-02-16T06:57:22.796Z,1021.63
2019-02-16T06:58:22.787Z,1021.65
2019-02-16T06:59:22.777Z,1021.63
2019-02-16T07:00:22.799Z,1021.64
2019-02-16T07:01:22.762Z,1021.66
2019-02-16T07:02:22.751Z,1021.63
2019-02-16T07:03:22.739Z,1021.63
2019-02-16T07:04:22.721Z,1021.65
2019-02-16T07:05:22.737Z,1021.66
2019-02-16T07:06:22.704Z,1021.64
2019-02-16T07:07:22.695Z,1021.70
2019-02-16T07:08:22.690Z,1021.67
2019-02-16T07:09:22.677Z,1021.65
2019-02-16T07:10:22.705Z,1021.66
2019-02-16T07:11:22.649Z,1021.66
2019-02-16T07:12:22.647Z,1021.70
2019-02-16T07:13:22.638Z,1021.64
2019-02-16T07:14:22.624Z,1021.63
2019-02-16T07:15:22.613Z,1021.64
2019-02-16T07:16:22.636Z,1021.63
2019-02-16T07:17:22.590Z,1021.64
2019-02-16T07:18:22.582Z,1021.63
2019-02-16T07:19:22.566Z,1021.63
2019-02-16T07:20:22.563Z,1021.63
2019-02-16T07:21:22.559Z,1021.61
2019-02-16T07:22:22.574Z,1021.63
2019-02-16T07:23:22.923Z,1021.57
2019-02-16T07:24:22.512Z,1021.59
2019-02-16T07:25:22.516Z,1021.62
2019-02-16T07:26:22.499Z,1021.59
2019-02-16T07:27:22.513Z,1021.63
2019-02-16T07:28:22.470Z,1021.63
2019-02-16T07:29:22.462Z,1021.64
2019-02-16T07:30:22.449Z,1021.65
2019-02-16T07:31:22.439Z,1021.64
2019-02-16T07:32:22.456Z,1021.66
2019-02-16T07:33:22.427Z,1021.65
2019-02-16T07:34:22.417Z,1021.61
2019-02-16T07:35:22.404Z,1021.64
2019-02-16T07:36:22.395Z,1021.60
2019-02-16T07:37:22.409Z,1021.61
2019-02-16T07:38:22.367Z,1021.52
2019-02-16T07:39:22.368Z,1021.56
2019-02-16T07:40:22.351Z,1021.50
2019-02-16T07:41:22.367Z,1021.45
2019-02-16T07:42:22.346Z,1021.44
2019-02-16T07:43:22.355Z,1021.49
2019-02-16T07:44:22.319Z,1021.45
2019-02-16T07:45:22.304Z,1021.43
2019-02-16T07:46:22.287Z,1021.43
2019-02-16T07:47:22.320Z,1021.44
2019-02-16T07:48:22.271Z,1021.43
2019-02-16T07:49:23.239Z,1021.43
2019-02-16T07:50:22.240Z,1021.41
2019-02-16T07:51:22.269Z,1021.42
2019-02-16T07:52:22.227Z,1021.45
2019-02-16T07:53:30.959Z,1021.43
2019-02-16T07:54:23.249Z,1021.48
2019-02-16T07:55:22.254Z,1021.42
2019-02-16T07:56:22.212Z,1021.45
2019-02-16T07:57:22.170Z,1021.48
2019-02-16T07:58:22.192Z,1021.50
2019-02-16T07:59:22.151Z,1021.45
2019-02-16T08:00:22.132Z,1021.44
2019-02-16T08:01:22.123Z,1021.46
2019-02-16T08:02:22.113Z,1021.48
2019-02-16T08:03:22.103Z,1021.46
2019-02-16T08:04:22.129Z,1021.51
2019-02-16T08:05:22.087Z,1021.50
2019-02-16T08:06:22.076Z,1021.51
2019-02-16T08:07:22.065Z,1021.53
2019-02-16T08:08:22.048Z,1021.54
2019-02-16T08:09:22.037Z,1021.52
2019-02-16T08:10:22.060Z,1021.56
2019-02-16T08:11:22.016Z,1021.50
2019-02-16T08:12:22.010Z,1021.47
2019-02-16T08:13:22.000Z,1021.46
2019-02-16T08:14:21.983Z,1021.41
2019-02-16T08:15:21.972Z,1021.37
2019-02-16T08:16:21.991Z,1021.42
2019-02-16T08:17:21.958Z,1021.41
2019-02-16T08:18:21.949Z,1021.38
2019-02-16T08:19:23.105Z,1021.41
2019-02-16T08:20:21.920Z,1021.41
2019-02-16T08:21:21.940Z,1021.38
2019-02-16T08:22:21.902Z,1021.33
2019-02-16T08:23:21.891Z,1021.32
2019-02-16T08:24:21.885Z,1021.29
2019-02-16T08:25:21.871Z,1021.31
2019-02-16T08:26:21.861Z,1021.35
2019-02-16T08:27:21.882Z,1021.33
2019-02-16T08:28:21.836Z,1021.41
2019-02-16T08:29:21.826Z,1021.32
2019-02-16T08:30:21.820Z,1021.34
2019-02-16T08:31:21.806Z,1021.31
2019-02-16T08:32:21.820Z,1021.29
2019-02-16T08:33:21.784Z,1021.26
2019-02-16T08:34:21.769Z,1021.34
2019-02-16T08:35:21.768Z,1021.31
2019-02-16T08:36:21.755Z,1021.30
2019-02-16T08:37:21.765Z,1021.29
2019-02-16T08:38:21.745Z,1021.29
2019-02-16T08:39:21.720Z,1021.26
2019-02-16T08:40:21.706Z,1021.28
2019-02-16T08:41:21.695Z,1021.27
2019-02-16T08:42:21.709Z,1021.26
2019-02-16T08:43:21.685Z,1021.26
2019-02-16T08:44:21.674Z,1021.21
2019-02-16T08:45:21.663Z,1021.18
2019-02-16T08:46:21.663Z,1021.16
2019-02-16T08:47:21.653Z,1021.17
2019-02-16T08:48:21.629Z,1021.22
2019-02-16T08:49:21.629Z,1021.26
2019-02-16T08:50:21.605Z,1021.18
2019-02-16T08:51:21.621Z,1021.27
2019-02-16T08:52:21.580Z,1021.33
2019-02-16T08:53:32.381Z,1021.36
2019-02-16T08:58:29.317Z,1021.40
2019-02-16T08:59:29.323Z,1021.38
2019-02-16T09:00:29.332Z,1021.43
2019-02-16T09:01:29.265Z,1021.35
2019-02-16T09:02:29.262Z,1021.35
2019-02-16T09:03:29.250Z,1021.32
2019-02-16T09:04:29.254Z,1021.32
2019-02-16T09:05:29.223Z,1021.32
2019-02-16T09:06:29.216Z,1021.35
2019-02-16T09:07:29.281Z,1021.31
2019-02-16T09:08:29.261Z,1021.30
2019-02-16T09:09:29.191Z,1021.25
2019-02-16T09:10:29.167Z,1021.32
2019-02-16T09:11:29.156Z,1021.37
2019-02-16T09:12:29.149Z,1021.38
2019-02-16T09:13:29.154Z,1021.34
2019-02-16T09:14:29.156Z,1021.35
2019-02-16T09:15:29.120Z,1021.39
2019-02-16T09:16:29.109Z,1021.38
2019-02-16T09:17:29.099Z,1021.41
2019-02-16T09:18:29.079Z,1021.39
2019-02-16T09:19:29.102Z,1021.39
2019-02-16T09:20:29.065Z,1021.44
2019-02-16T09:21:29.074Z,1021.34
2019-02-16T09:22:29.041Z,1021.41
2019-02-16T09:23:29.196Z,1021.39
2019-02-16T09:24:29.129Z,1021.44
2019-02-16T09:25:29.035Z,1021.45
2019-02-16T09:26:29.025Z,1021.44
2019-02-16T09:27:28.997Z,1021.32
2019-02-16T09:28:29.809Z,1021.26
2019-02-16T09:29:29.006Z,1021.27
2019-02-16T09:30:29.031Z,1021.19
2019-02-16T09:31:28.947Z,1021.19
2019-02-16T09:32:28.938Z,1021.18
2019-02-16T09:33:28.931Z,1021.13
2019-02-16T09:34:28.928Z,1021.12
2019-02-16T09:35:28.942Z,1021.07
2019-02-16T09:36:28.893Z,1021.06
2019-02-16T09:37:29.032Z,1021.13
2019-02-16T09:38:28.904Z,1021.18
2019-02-16T09:39:28.893Z,1021.17
2019-02-16T09:40:28.879Z,1021.11
2019-02-16T09:41:28.849Z,1021.13
2019-02-16T09:42:28.829Z,1021.07
2019-02-16T09:43:28.819Z,1021.07
2019-02-16T09:44:28.810Z,1021.22
2019-02-16T09:45:28.823Z,1021.17
2019-02-16T09:46:28.797Z,1021.19
2019-02-16T09:47:28.782Z,1021.20
2019-02-16T09:48:28.769Z,1021.19
2019-02-16T09:49:28.762Z,1021.13
2019-02-16T09:50:28.777Z,1021.13
2019-02-16T09:51:28.745Z,1021.07
2019-02-16T09:52:28.730Z,1021.11
2019-02-16T09:53:28.720Z,1021.11
2019-02-16T09:54:28.697Z,1021.13
2019-02-16T09:55:28.689Z,1021.19
2019-02-16T09:56:28.711Z,1021.24
2019-02-16T09:57:28.673Z,1021.22
2019-02-16T09:58:28.664Z,1021.25
2019-02-16T09:59:28.662Z,1021.21
2019-02-16T10:00:28.644Z,1021.25
2019-02-16T10:01:28.638Z,1021.26
2019-02-16T10:02:28.641Z,1021.25
2019-02-16T10:03:28.610Z,1021.31
2019-02-16T10:04:28.590Z,1021.33
2019-02-16T10:05:28.603Z,1021.34
2019-02-16T10:06:28.579Z,1021.35
2019-02-16T10:07:30.440Z,1021.33
2019-02-16T10:08:28.552Z,1021.28
2019-02-16T10:09:28.541Z,1021.31
2019-02-16T10:10:28.545Z,1021.28
2019-02-16T10:11:28.521Z,1021.22
2019-02-16T10:12:28.532Z,1021.28
2019-02-16T10:13:28.504Z,1021.21
2019-02-16T10:14:28.484Z,1021.24
2019-02-16T10:15:28.482Z,1021.34
2019-02-16T10:16:28.490Z,1021.32
2019-02-16T10:17:28.455Z,1021.30
2019-02-16T10:18:28.553Z,1021.29
2019-02-16T10:19:28.447Z,1021.31
2019-02-16T10:20:28.433Z,1021.28
2019-02-16T10:21:28.419Z,1021.13
2019-02-16T10:22:28.402Z,1021.08
2019-02-16T10:23:28.426Z,1021.06
2019-02-16T10:24:28.393Z,1020.98
2019-02-16T10:25:28.381Z,1020.98
2019-02-16T10:26:28.359Z,1020.92
2019-02-16T10:27:28.348Z,1020.95
2019-02-16T10:28:28.339Z,1020.96
2019-02-16T10:29:28.353Z,1020.86
2019-02-16T10:30:28.324Z,1020.90
2019-02-16T10:31:28.311Z,1020.87
2019-02-16T10:32:28.302Z,1020.90
2019-02-16T10:33:28.291Z,1020.89
2019-02-16T10:34:28.297Z,1020.89
2019-02-16T10:35:28.265Z,1020.84
2019-02-16T10:36:29.381Z,1020.80
2019-02-16T10:37:28.242Z,1020.93
2019-02-16T10:38:28.243Z,1020.88
2019-02-16T10:39:28.226Z,1020.86
2019-02-16T10:40:28.243Z,1020.92
2019-02-16T10:41:28.199Z,1020.92
2019-02-16T10:42:28.194Z,1020.88
2019-02-16T10:43:28.188Z,1020.88
2019-02-16T10:44:28.174Z,1020.92
2019-02-16T10:45:28.159Z,1020.83
2019-02-16T10:46:28.178Z,1020.88
2019-02-16T10:47:28.134Z,1020.82
2019-02-16T10:48:28.122Z,1020.83
2019-02-16T10:49:28.111Z,1020.81
2019-02-16T10:50:28.105Z,1020.76
2019-02-16T10:51:28.095Z,1020.75
2019-02-16T10:52:28.118Z,1020.73
2019-02-16T10:53:28.071Z,1020.68
2019-02-16T10:54:29.673Z,1020.71
2019-02-16T10:55:28.046Z,1020.63
2019-02-16T10:56:28.039Z,1020.63
2019-02-16T10:57:28.028Z,1020.57
2019-02-16T10:58:28.035Z,1020.62
2019-02-16T10:59:28.001Z,1020.60
2019-02-16T11:00:27.996Z,1020.58
2019-02-16T11:01:27.980Z,1020.57
2019-02-16T11:02:27.973Z,1020.52
2019-02-16T11:03:27.985Z,1020.55
2019-02-16T11:04:27.953Z,1020.55
2019-02-16T11:05:27.943Z,1020.53
2019-02-16T11:06:27.925Z,1020.52
2019-02-16T11:07:27.915Z,1020.52
2019-02-16T11:08:27.938Z,1020.52
2019-02-16T11:09:27.891Z,1020.46
2019-02-16T11:10:27.885Z,1020.48
2019-02-16T11:11:27.875Z,1020.45
2019-02-16T11:12:27.865Z,1020.47
2019-02-16T11:13:27.846Z,1020.56
2019-02-16T11:14:27.867Z,1020.49
2019-02-16T11:15:27.833Z,1020.45
2019-02-16T11:16:27.820Z,1020.46
2019-02-16T11:17:27.810Z,1020.53
2019-02-16T11:18:27.796Z,1020.56
2019-02-16T11:19:27.814Z,1020.52
2019-02-16T11:20:27.775Z,1020.54
2019-02-16T11:21:27.764Z,1020.51
2019-02-16T11:22:27.758Z,1020.58
2019-02-16T11:23:27.749Z,1020.51
2019-02-16T11:24:35.837Z,1020.57
2019-02-16T11:25:28.746Z,1020.64
2019-02-16T11:26:27.707Z,1020.64
2019-02-16T11:27:27.700Z,1020.61
2019-02-16T11:28:27.691Z,1020.62
2019-02-16T11:29:27.684Z,1020.66
2019-02-16T11:30:27.687Z,1020.67
2019-02-16T11:31:27.653Z,1020.62
2019-02-16T11:32:27.644Z,1020.63
2019-02-16T11:33:27.635Z,1020.63
2019-02-16T11:34:27.661Z,1020.64
2019-02-16T11:35:27.615Z,1020.62
2019-02-16T11:36:27.603Z,1020.62
2019-02-16T11:37:27.591Z,1020.60
2019-02-16T11:38:27.578Z,1020.62
2019-02-16T11:39:27.568Z,1020.59
2019-02-16T11:40:27.582Z,1020.57
2019-02-16T11:41:27.544Z,1020.54
2019-02-16T11:42:27.539Z,1020.51
2019-02-16T11:43:27.527Z,1020.53
2019-02-16T11:44:27.513Z,1020.50
2019-02-16T11:45:27.507Z,1020.50
2019-02-16T11:46:27.519Z,1020.48
2019-02-16T11:47:27.485Z,1020.48
2019-02-16T11:48:27.476Z,1020.51
2019-02-16T11:49:27.462Z,1020.46
2019-02-16T11:50:27.483Z,1020.49
2019-02-16T11:51:27.436Z,1020.49
2019-02-16T11:52:27.425Z,1020.46
2019-02-16T11:53:27.415Z,1020.47
2019-02-16T11:54:27.409Z,1020.41
2019-02-16T11:55:27.400Z,1020.42
2019-02-16T11:56:27.412Z,1020.41
2019-02-16T11:57:27.379Z,1020.40
2019-02-16T11:58:27.361Z,1020.34
2019-02-16T11:59:27.350Z,1020.34
2019-02-16T12:00:27.343Z,1020.40
2019-02-16T12:01:27.400Z,1020.36
2019-02-16T12:02:27.317Z,1020.35
2019-02-16T12:03:27.305Z,1020.32
2019-02-16T12:04:27.295Z,1020.27
2019-02-16T12:05:27.283Z,1020.27
2019-02-16T12:06:27.305Z,1020.25
2019-02-16T12:07:27.266Z,1020.26
2019-02-16T12:08:27.262Z,1020.24
2019-02-16T12:09:27.303Z,1020.27